sensor_id;sensor_type;location;lat;lon;timestamp;P1;durP1;ratioP1;P2;durP2;ratioP2
47812;SDS011;34221;45.296;9.516;2022-12-24T00:00:07;79.00;;;52.47;;
47812;SDS011;34221;45.296;9.516;2022-12-24T00:00:25;82.88;;;53.35;;
47812;SDS011;34221;45.296;9.516;2022-12-24T00:00:41;81.38;;;52.75;;
47812;SDS011;34221;45.296;9.516;2022-12-24T00:00:56;81.10;;;53.25;;
47812;SDS011;34221;45.296;9.516;2022-12-24T00:01:11;85.38;;;55.13;;
47812;SDS011;34221;45.296;9.516;2022-12-24T00:01:26;88.55;;;56.20;;
47812;SDS011;34221;45.296;9.516;2022-12-24T00:01:41;90.50;;;56.10;;
47812;SDS011;34221;45.296;9.516;2022-12-24T00:01:57;89.00;;;56.30;;
47812;SDS011;34221;45.296;9.516;2022-12-24T00:02:11;86.15;;;56.92;;
47812;SDS011;34221;45.296;9.516;2022-12-24T00:02:26;87.15;;;57.17;;
47812;SDS011;34221;45.296;9.516;2022-12-24T00:02:41;85.15;;;56.25;;
47812;SDS011;34221;45.296;9.516;2022-12-24T00:02:56;81.68;;;55.60;;
47812;SDS011;34221;45.296;9.516;2022-12-24T00:03:11;80.95;;;55.10;;
47812;SDS011;34221;45.296;9.516;2022-12-24T00:03:26;84.88;;;55.58;;
47812;SDS011;34221;45.296;9.516;2022-12-24T00:03:41;90.30;;;56.42;;
47812;SDS011;34221;45.296;9.516;2022-12-24T00:03:56;89.35;;;55.75;;
47812;SDS011;34221;45.296;9.516;2022-12-24T00:04:11;86.72;;;55.78;;
47812;SDS011;34221;45.296;9.516;2022-12-24T00:04:26;87.35;;;56.30;;
47812;SDS011;34221;45.296;9.516;2022-12-24T00:04:41;84.22;;;54.85;;
47812;SDS011;34221;45.296;9.516;2022-12-24T00:04:56;80.80;;;53.33;;
47812;SDS011;34221;45.296;9.516;2022-12-24T00:05:10;80.50;;;53.35;;
47812;SDS011;34221;45.296;9.516;2022-12-24T00:05:25;84.45;;;55.47;;
47812;SDS011;34221;45.296;9.516;2022-12-24T00:05:40;85.20;;;56.75;;
47812;SDS011;34221;45.296;9.516;2022-12-24T00:05:55;83.32;;;55.42;;
47812;SDS011;34221;45.296;9.516;2022-12-24T00:06:18;87.65;;;55.20;;
47812;SDS011;34221;45.296;9.516;2022-12-24T00:06:36;87.97;;;57.03;;
47812;SDS011;34221;45.296;9.516;2022-12-24T00:06:51;83.57;;;55.65;;
47812;SDS011;34221;45.296;9.516;2022-12-24T00:07:06;85.88;;;57.13;;
47812;SDS011;34221;45.296;9.516;2022-12-24T00:07:20;88.35;;;57.95;;
47812;SDS011;34221;45.296;9.516;2022-12-24T00:07:35;85.22;;;55.55;;
47812;SDS011;34221;45.296;9.516;2022-12-24T00:07:50;83.50;;;54.80;;
47812;SDS011;34221;45.296;9.516;2022-12-24T00:08:05;88.50;;;56.25;;
47812;SDS011;34221;45.296;9.516;2022-12-24T00:08:21;90.68;;;57.75;;
47812;SDS011;34221;45.296;9.516;2022-12-24T00:08:36;88.25;;;58.92;;
47812;SDS011;34221;45.296;9.516;2022-12-24T00:08:51;91.95;;;57.92;;
47812;SDS011;34221;45.296;9.516;2022-12-24T00:09:06;91.75;;;57.03;;
47812;SDS011;34221;45.296;9.516;2022-12-24T00:09:23;88.78;;;57.53;;
47812;SDS011;34221;45.296;9.516;2022-12-24T00:09:38;93.78;;;59.13;;
47812;SDS011;34221;45.296;9.516;2022-12-24T00:09:53;93.90;;;58.75;;
47812;SDS011;34221;45.296;9.516;2022-12-24T00:10:08;88.03;;;57.53;;
47812;SDS011;34221;45.296;9.516;2022-12-24T00:10:24;89.75;;;58.00;;
47812;SDS011;34221;45.296;9.516;2022-12-24T00:10:39;91.88;;;59.08;;
47812;SDS011;34221;45.296;9.516;2022-12-24T00:10:53;91.70;;;59.03;;
47812;SDS011;34221;45.296;9.516;2022-12-24T00:11:08;91.43;;;59.00;;
47812;SDS011;34221;45.296;9.516;2022-12-24T00:11:23;91.40;;;57.08;;
47812;SDS011;34221;45.296;9.516;2022-12-24T00:11:38;91.07;;;55.53;;
47812;SDS011;34221;45.296;9.516;2022-12-24T00:11:53;86.43;;;55.72;;
47812;SDS011;34221;45.296;9.516;2022-12-24T00:12:08;85.88;;;55.97;;
47812;SDS011;34221;45.296;9.516;2022-12-24T00:12:23;89.90;;;57.55;;
47812;SDS011;34221;45.296;9.516;2022-12-24T00:12:38;91.57;;;58.30;;
47812;SDS011;34221;45.296;9.516;2022-12-24T00:12:53;89.00;;;57.67;;
47812;SDS011;34221;45.296;9.516;2022-12-24T00:13:08;91.45;;;58.60;;
47812;SDS011;34221;45.296;9.516;2022-12-24T00:13:23;94.80;;;60.28;;
47812;SDS011;34221;45.296;9.516;2022-12-24T00:13:38;92.00;;;59.85;;
47812;SDS011;34221;45.296;9.516;2022-12-24T00:13:53;90.75;;;58.55;;
47812;SDS011;34221;45.296;9.516;2022-12-24T00:14:08;92.68;;;59.05;;
47812;SDS011;34221;45.296;9.516;2022-12-24T00:14:23;93.85;;;58.90;;
47812;SDS011;34221;45.296;9.516;2022-12-24T00:14:38;96.40;;;58.47;;
47812;SDS011;34221;45.296;9.516;2022-12-24T00:14:53;95.60;;;58.92;;
47812;SDS011;34221;45.296;9.516;2022-12-24T00:15:08;88.53;;;57.85;;
47812;SDS011;34221;45.296;9.516;2022-12-24T00:15:24;91.40;;;58.10;;
47812;SDS011;34221;45.296;9.516;2022-12-24T00:15:39;93.00;;;57.55;;
47812;SDS011;34221;45.296;9.516;2022-12-24T00:15:53;88.78;;;55.97;;
47812;SDS011;34221;45.296;9.516;2022-12-24T00:16:08;88.57;;;57.22;;
47812;SDS011;34221;45.296;9.516;2022-12-24T00:16:23;89.35;;;57.80;;
47812;SDS011;34221;45.296;9.516;2022-12-24T00:16:38;92.80;;;57.90;;
47812;SDS011;34221;45.296;9.516;2022-12-24T00:16:53;94.47;;;58.90;;
47812;SDS011;34221;45.296;9.516;2022-12-24T00:17:08;92.78;;;60.40;;
47812;SDS011;34221;45.296;9.516;2022-12-24T00:17:23;90.95;;;58.97;;
47812;SDS011;34221;45.296;9.516;2022-12-24T00:17:38;91.97;;;59.15;;
47812;SDS011;34221;45.296;9.516;2022-12-24T00:17:53;92.88;;;60.08;;
47812;SDS011;34221;45.296;9.516;2022-12-24T00:18:08;89.65;;;57.05;;
47812;SDS011;34221;45.296;9.516;2022-12-24T00:18:23;88.15;;;56.25;;
47812;SDS011;34221;45.296;9.516;2022-12-24T00:18:38;91.05;;;57.95;;
47812;SDS011;34221;45.296;9.516;2022-12-24T00:18:52;92.72;;;59.00;;
47812;SDS011;34221;45.296;9.516;2022-12-24T00:19:07;94.00;;;60.42;;
47812;SDS011;34221;45.296;9.516;2022-12-24T00:19:22;96.28;;;61.22;;
47812;SDS011;34221;45.296;9.516;2022-12-24T00:19:37;100.40;;;61.83;;
47812;SDS011;34221;45.296;9.516;2022-12-24T00:19:52;101.25;;;61.50;;
47812;SDS011;34221;45.296;9.516;2022-12-24T00:20:07;95.03;;;59.80;;
47812;SDS011;34221;45.296;9.516;2022-12-24T00:20:23;95.15;;;59.25;;
47812;SDS011;34221;45.296;9.516;2022-12-24T00:20:38;100.32;;;60.40;;
47812;SDS011;34221;45.296;9.516;2022-12-24T00:20:53;99.45;;;61.85;;
47812;SDS011;34221;45.296;9.516;2022-12-24T00:21:08;99.50;;;61.22;;
47812;SDS011;34221;45.296;9.516;2022-12-24T00:21:23;99.82;;;60.35;;
47812;SDS011;34221;45.296;9.516;2022-12-24T00:21:38;96.50;;;59.90;;
47812;SDS011;34221;45.296;9.516;2022-12-24T00:21:53;92.35;;;58.63;;
47812;SDS011;34221;45.296;9.516;2022-12-24T00:22:43;94.57;;;59.83;;
47812;SDS011;34221;45.296;9.516;2022-12-24T00:22:58;94.50;;;59.50;;
47812;SDS011;34221;45.296;9.516;2022-12-24T00:23:13;97.05;;;61.05;;
47812;SDS011;34221;45.296;9.516;2022-12-24T00:23:29;96.80;;;61.40;;
47812;SDS011;34221;45.296;9.516;2022-12-24T00:23:44;94.55;;;60.95;;
47812;SDS011;34221;45.296;9.516;2022-12-24T00:24:00;95.47;;;61.05;;
47812;SDS011;34221;45.296;9.516;2022-12-24T00:24:17;97.10;;;61.83;;
47812;SDS011;34221;45.296;9.516;2022-12-24T00:24:32;97.17;;;62.53;;
47812;SDS011;34221;45.296;9.516;2022-12-24T00:24:47;99.57;;;62.57;;
47812;SDS011;34221;45.296;9.516;2022-12-24T00:25:02;100.20;;;62.33;;
47812;SDS011;34221;45.296;9.516;2022-12-24T00:25:17;99.25;;;62.22;;
47812;SDS011;34221;45.296;9.516;2022-12-24T00:25:32;97.20;;;62.03;;
47812;SDS011;34221;45.296;9.516;2022-12-24T00:25:47;94.22;;;61.17;;
47812;SDS011;34221;45.296;9.516;2022-12-24T00:26:02;96.47;;;61.42;;
47812;SDS011;34221;45.296;9.516;2022-12-24T00:26:17;96.47;;;61.92;;
47812;SDS011;34221;45.296;9.516;2022-12-24T00:26:32;96.30;;;62.10;;
47812;SDS011;34221;45.296;9.516;2022-12-24T00:26:48;100.40;;;62.17;;
47812;SDS011;34221;45.296;9.516;2022-12-24T00:27:03;97.80;;;60.28;;
47812;SDS011;34221;45.296;9.516;2022-12-24T00:27:19;98.72;;;61.30;;
47812;SDS011;34221;45.296;9.516;2022-12-24T00:27:33;105.85;;;63.30;;
47812;SDS011;34221;45.296;9.516;2022-12-24T00:27:48;104.03;;;62.97;;
47812;SDS011;34221;45.296;9.516;2022-12-24T00:28:03;100.93;;;63.55;;
47812;SDS011;34221;45.296;9.516;2022-12-24T00:28:18;96.72;;;63.40;;
47812;SDS011;34221;45.296;9.516;2022-12-24T00:28:35;96.00;;;62.45;;
47812;SDS011;34221;45.296;9.516;2022-12-24T00:28:50;98.47;;;61.65;;
47812;SDS011;34221;45.296;9.516;2022-12-24T00:29:05;95.25;;;61.10;;
47812;SDS011;34221;45.296;9.516;2022-12-24T00:29:20;91.22;;;60.55;;
47812;SDS011;34221;45.296;9.516;2022-12-24T00:29:35;98.07;;;61.80;;
47812;SDS011;34221;45.296;9.516;2022-12-24T00:29:49;102.38;;;62.10;;
47812;SDS011;34221;45.296;9.516;2022-12-24T00:30:05;97.80;;;61.53;;
47812;SDS011;34221;45.296;9.516;2022-12-24T00:30:20;95.45;;;60.40;;
47812;SDS011;34221;45.296;9.516;2022-12-24T00:30:38;95.47;;;59.88;;
47812;SDS011;34221;45.296;9.516;2022-12-24T00:30:55;95.57;;;60.78;;
47812;SDS011;34221;45.296;9.516;2022-12-24T00:31:11;100.43;;;60.47;;
47812;SDS011;34221;45.296;9.516;2022-12-24T00:31:31;98.63;;;60.20;;
47812;SDS011;34221;45.296;9.516;2022-12-24T00:31:46;95.63;;;59.85;;
47812;SDS011;34221;45.296;9.516;2022-12-24T00:32:01;90.53;;;59.38;;
47812;SDS011;34221;45.296;9.516;2022-12-24T00:32:16;90.90;;;60.72;;
47812;SDS011;34221;45.296;9.516;2022-12-24T00:32:31;93.15;;;60.45;;
47812;SDS011;34221;45.296;9.516;2022-12-24T00:32:45;91.03;;;58.90;;
47812;SDS011;34221;45.296;9.516;2022-12-24T00:33:00;93.60;;;60.55;;
47812;SDS011;34221;45.296;9.516;2022-12-24T00:33:15;97.47;;;62.38;;
47812;SDS011;34221;45.296;9.516;2022-12-24T00:33:30;97.18;;;63.50;;
47812;SDS011;34221;45.296;9.516;2022-12-24T00:33:45;97.35;;;63.28;;
47812;SDS011;34221;45.296;9.516;2022-12-24T00:34:01;95.40;;;61.33;;
47812;SDS011;34221;45.296;9.516;2022-12-24T00:34:15;94.28;;;60.70;;
47812;SDS011;34221;45.296;9.516;2022-12-24T00:34:30;93.72;;;59.53;;
47812;SDS011;34221;45.296;9.516;2022-12-24T00:34:45;92.22;;;59.53;;
47812;SDS011;34221;45.296;9.516;2022-12-24T00:35:00;96.32;;;62.10;;
47812;SDS011;34221;45.296;9.516;2022-12-24T00:35:15;101.40;;;63.13;;
47812;SDS011;34221;45.296;9.516;2022-12-24T00:35:32;102.50;;;62.70;;
47812;SDS011;34221;45.296;9.516;2022-12-24T00:35:49;97.10;;;61.70;;
47812;SDS011;34221;45.296;9.516;2022-12-24T00:36:05;96.40;;;60.95;;
47812;SDS011;34221;45.296;9.516;2022-12-24T00:36:21;96.13;;;61.08;;
47812;SDS011;34221;45.296;9.516;2022-12-24T00:36:37;97.53;;;61.65;;
47812;SDS011;34221;45.296;9.516;2022-12-24T00:36:51;99.32;;;62.15;;
47812;SDS011;34221;45.296;9.516;2022-12-24T00:37:06;97.77;;;61.67;;
47812;SDS011;34221;45.296;9.516;2022-12-24T00:37:21;96.80;;;60.93;;
47812;SDS011;34221;45.296;9.516;2022-12-24T00:37:36;95.03;;;59.13;;
47812;SDS011;34221;45.296;9.516;2022-12-24T00:37:51;93.35;;;60.13;;
47812;SDS011;34221;45.296;9.516;2022-12-24T00:38:06;94.57;;;61.45;;
47812;SDS011;34221;45.296;9.516;2022-12-24T00:38:22;97.67;;;60.73;;
47812;SDS011;34221;45.296;9.516;2022-12-24T00:38:37;102.57;;;62.17;;
47812;SDS011;34221;45.296;9.516;2022-12-24T00:38:52;102.93;;;62.88;;
47812;SDS011;34221;45.296;9.516;2022-12-24T00:39:07;100.80;;;61.38;;
47812;SDS011;34221;45.296;9.516;2022-12-24T00:39:22;100.18;;;62.75;;
47812;SDS011;34221;45.296;9.516;2022-12-24T00:39:37;96.53;;;61.63;;
47812;SDS011;34221;45.296;9.516;2022-12-24T00:39:52;95.15;;;59.95;;
47812;SDS011;34221;45.296;9.516;2022-12-24T00:40:07;98.97;;;61.38;;
47812;SDS011;34221;45.296;9.516;2022-12-24T00:40:22;100.93;;;62.03;;
47812;SDS011;34221;45.296;9.516;2022-12-24T00:40:37;95.32;;;61.65;;
47812;SDS011;34221;45.296;9.516;2022-12-24T00:40:56;95.00;;;61.40;;
47812;SDS011;34221;45.296;9.516;2022-12-24T00:41:20;94.25;;;61.35;;
47812;SDS011;34221;45.296;9.516;2022-12-24T00:41:38;99.72;;;61.70;;
47812;SDS011;34221;45.296;9.516;2022-12-24T00:41:53;98.60;;;61.00;;
47812;SDS011;34221;45.296;9.516;2022-12-24T00:42:08;95.10;;;60.33;;
47812;SDS011;34221;45.296;9.516;2022-12-24T00:42:23;90.38;;;59.83;;
47812;SDS011;34221;45.296;9.516;2022-12-24T00:42:38;85.03;;;57.88;;
47812;SDS011;34221;45.296;9.516;2022-12-24T00:42:53;97.95;;;58.67;;
47812;SDS011;34221;45.296;9.516;2022-12-24T00:43:08;105.45;;;60.83;;
47812;SDS011;34221;45.296;9.516;2022-12-24T00:43:23;96.80;;;60.67;;
47812;SDS011;34221;45.296;9.516;2022-12-24T00:43:37;93.13;;;59.28;;
47812;SDS011;34221;45.296;9.516;2022-12-24T00:43:56;99.47;;;61.33;;
47812;SDS011;34221;45.296;9.516;2022-12-24T00:44:16;94.20;;;60.63;;
47812;SDS011;34221;45.296;9.516;2022-12-24T00:44:31;91.68;;;60.28;;
47812;SDS011;34221;45.296;9.516;2022-12-24T00:44:46;94.88;;;62.25;;
47812;SDS011;34221;45.296;9.516;2022-12-24T00:45:01;95.60;;;62.45;;
47812;SDS011;34221;45.296;9.516;2022-12-24T00:45:16;95.93;;;62.00;;
47812;SDS011;34221;45.296;9.516;2022-12-24T00:45:31;97.30;;;62.28;;
47812;SDS011;34221;45.296;9.516;2022-12-24T00:45:46;100.68;;;62.42;;
47812;SDS011;34221;45.296;9.516;2022-12-24T00:46:01;101.85;;;62.70;;
47812;SDS011;34221;45.296;9.516;2022-12-24T00:46:16;102.07;;;61.95;;
47812;SDS011;34221;45.296;9.516;2022-12-24T00:46:32;101.75;;;61.13;;
47812;SDS011;34221;45.296;9.516;2022-12-24T00:46:47;96.88;;;59.42;;
47812;SDS011;34221;45.296;9.516;2022-12-24T00:47:02;95.35;;;58.22;;
47812;SDS011;34221;45.296;9.516;2022-12-24T00:47:17;94.47;;;59.63;;
47812;SDS011;34221;45.296;9.516;2022-12-24T00:47:32;94.63;;;59.80;;
47812;SDS011;34221;45.296;9.516;2022-12-24T00:47:47;97.93;;;59.63;;
47812;SDS011;34221;45.296;9.516;2022-12-24T00:48:02;100.43;;;61.78;;
47812;SDS011;34221;45.296;9.516;2022-12-24T00:48:17;99.30;;;63.08;;
47812;SDS011;34221;45.296;9.516;2022-12-24T00:48:32;98.32;;;61.53;;
47812;SDS011;34221;45.296;9.516;2022-12-24T00:48:47;95.70;;;60.83;;
47812;SDS011;34221;45.296;9.516;2022-12-24T00:49:02;95.60;;;61.25;;
47812;SDS011;34221;45.296;9.516;2022-12-24T00:49:19;98.35;;;60.95;;
47812;SDS011;34221;45.296;9.516;2022-12-24T00:49:34;101.25;;;62.45;;
47812;SDS011;34221;45.296;9.516;2022-12-24T00:50:09;99.22;;;61.75;;
47812;SDS011;34221;45.296;9.516;2022-12-24T00:50:24;96.80;;;61.15;;
47812;SDS011;34221;45.296;9.516;2022-12-24T00:50:39;101.15;;;63.13;;
47812;SDS011;34221;45.296;9.516;2022-12-24T00:50:54;100.65;;;63.20;;
47812;SDS011;34221;45.296;9.516;2022-12-24T00:51:09;99.25;;;62.83;;
47812;SDS011;34221;45.296;9.516;2022-12-24T00:51:24;101.50;;;63.55;;
47812;SDS011;34221;45.296;9.516;2022-12-24T00:51:39;102.15;;;63.92;;
47812;SDS011;34221;45.296;9.516;2022-12-24T00:51:54;102.38;;;62.67;;
47812;SDS011;34221;45.296;9.516;2022-12-24T00:52:09;98.28;;;61.50;;
47812;SDS011;34221;45.296;9.516;2022-12-24T00:52:23;92.65;;;61.05;;
47812;SDS011;34221;45.296;9.516;2022-12-24T00:52:38;95.75;;;62.08;;
47812;SDS011;34221;45.296;9.516;2022-12-24T00:52:54;98.93;;;62.83;;
47812;SDS011;34221;45.296;9.516;2022-12-24T00:53:08;98.78;;;62.00;;
47812;SDS011;34221;45.296;9.516;2022-12-24T00:53:23;101.25;;;62.40;;
47812;SDS011;34221;45.296;9.516;2022-12-24T00:53:38;98.85;;;61.13;;
47812;SDS011;34221;45.296;9.516;2022-12-24T00:53:53;97.18;;;60.33;;
47812;SDS011;34221;45.296;9.516;2022-12-24T00:54:09;97.72;;;60.97;;
47812;SDS011;34221;45.296;9.516;2022-12-24T00:54:24;100.47;;;61.50;;
47812;SDS011;34221;45.296;9.516;2022-12-24T00:54:39;104.47;;;63.13;;
47812;SDS011;34221;45.296;9.516;2022-12-24T00:54:54;102.30;;;62.85;;
47812;SDS011;34221;45.296;9.516;2022-12-24T00:55:09;102.10;;;61.25;;
47812;SDS011;34221;45.296;9.516;2022-12-24T00:55:23;96.80;;;59.33;;
47812;SDS011;34221;45.296;9.516;2022-12-24T00:55:38;94.28;;;59.30;;
47812;SDS011;34221;45.296;9.516;2022-12-24T00:55:53;100.22;;;60.95;;
47812;SDS011;34221;45.296;9.516;2022-12-24T00:56:08;97.47;;;59.97;;
47812;SDS011;34221;45.296;9.516;2022-12-24T00:56:23;94.47;;;60.47;;
47812;SDS011;34221;45.296;9.516;2022-12-24T00:56:38;96.00;;;62.03;;
47812;SDS011;34221;45.296;9.516;2022-12-24T00:56:53;103.43;;;62.58;;
47812;SDS011;34221;45.296;9.516;2022-12-24T00:57:08;105.50;;;61.73;;
47812;SDS011;34221;45.296;9.516;2022-12-24T00:57:23;104.70;;;60.33;;
47812;SDS011;34221;45.296;9.516;2022-12-24T00:57:38;100.82;;;60.67;;
47812;SDS011;34221;45.296;9.516;2022-12-24T00:57:53;99.47;;;61.75;;
47812;SDS011;34221;45.296;9.516;2022-12-24T00:58:07;103.57;;;62.40;;
47812;SDS011;34221;45.296;9.516;2022-12-24T00:58:22;94.07;;;59.38;;
47812;SDS011;34221;45.296;9.516;2022-12-24T00:58:37;95.57;;;58.88;;
47812;SDS011;34221;45.296;9.516;2022-12-24T00:58:52;100.40;;;60.83;;
47812;SDS011;34221;45.296;9.516;2022-12-24T00:59:08;97.55;;;60.90;;
47812;SDS011;34221;45.296;9.516;2022-12-24T00:59:23;97.85;;;60.53;;
47812;SDS011;34221;45.296;9.516;2022-12-24T00:59:38;95.50;;;60.22;;
47812;SDS011;34221;45.296;9.516;2022-12-24T00:59:53;96.55;;;60.83;;
47812;SDS011;34221;45.296;9.516;2022-12-24T01:00:08;97.95;;;61.00;;
47812;SDS011;34221;45.296;9.516;2022-12-24T01:00:23;94.25;;;58.58;;
47812;SDS011;34221;45.296;9.516;2022-12-24T01:00:38;93.80;;;58.53;;
47812;SDS011;34221;45.296;9.516;2022-12-24T01:00:53;95.57;;;60.33;;
47812;SDS011;34221;45.296;9.516;2022-12-24T01:01:08;95.75;;;61.17;;
47812;SDS011;34221;45.296;9.516;2022-12-24T01:01:24;97.70;;;61.10;;
47812;SDS011;34221;45.296;9.516;2022-12-24T01:01:39;96.78;;;61.00;;
47812;SDS011;34221;45.296;9.516;2022-12-24T01:01:54;95.60;;;61.70;;
47812;SDS011;34221;45.296;9.516;2022-12-24T01:02:09;93.50;;;60.08;;
47812;SDS011;34221;45.296;9.516;2022-12-24T01:02:24;93.65;;;58.97;;
47812;SDS011;34221;45.296;9.516;2022-12-24T01:02:39;100.05;;;60.05;;
47812;SDS011;34221;45.296;9.516;2022-12-24T01:02:54;95.57;;;59.13;;
47812;SDS011;34221;45.296;9.516;2022-12-24T01:03:08;89.70;;;58.55;;
47812;SDS011;34221;45.296;9.516;2022-12-24T01:03:23;88.57;;;59.25;;
47812;SDS011;34221;45.296;9.516;2022-12-24T01:03:51;97.95;;;61.15;;
47812;SDS011;34221;45.296;9.516;2022-12-24T01:04:30;95.05;;;59.65;;
47812;SDS011;34221;45.296;9.516;2022-12-24T01:05:04;94.28;;;60.33;;
47812;SDS011;34221;45.296;9.516;2022-12-24T01:05:26;96.15;;;61.05;;
47812;SDS011;34221;45.296;9.516;2022-12-24T01:05:41;93.30;;;60.35;;
47812;SDS011;34221;45.296;9.516;2022-12-24T01:05:56;95.20;;;59.63;;
47812;SDS011;34221;45.296;9.516;2022-12-24T01:06:14;95.68;;;60.45;;
47812;SDS011;34221;45.296;9.516;2022-12-24T01:06:32;91.70;;;60.08;;
47812;SDS011;34221;45.296;9.516;2022-12-24T01:06:47;91.53;;;60.40;;
47812;SDS011;34221;45.296;9.516;2022-12-24T01:07:02;95.22;;;60.22;;
47812;SDS011;34221;45.296;9.516;2022-12-24T01:07:17;96.72;;;59.88;;
47812;SDS011;34221;45.296;9.516;2022-12-24T01:07:32;97.03;;;60.17;;
47812;SDS011;34221;45.296;9.516;2022-12-24T01:07:49;104.07;;;61.75;;
47812;SDS011;34221;45.296;9.516;2022-12-24T01:08:04;101.75;;;61.67;;
47812;SDS011;34221;45.296;9.516;2022-12-24T01:08:19;94.97;;;61.08;;
47812;SDS011;34221;45.296;9.516;2022-12-24T01:08:34;91.82;;;60.20;;
47812;SDS011;34221;45.296;9.516;2022-12-24T01:08:50;92.97;;;59.72;;
47812;SDS011;34221;45.296;9.516;2022-12-24T01:09:05;98.43;;;60.92;;
47812;SDS011;34221;45.296;9.516;2022-12-24T01:09:20;98.45;;;60.00;;
47812;SDS011;34221;45.296;9.516;2022-12-24T01:09:35;92.85;;;58.88;;
47812;SDS011;34221;45.296;9.516;2022-12-24T01:09:50;95.20;;;61.17;;
47812;SDS011;34221;45.296;9.516;2022-12-24T01:10:05;102.07;;;62.83;;
47812;SDS011;34221;45.296;9.516;2022-12-24T01:10:22;102.00;;;61.80;;
47812;SDS011;34221;45.296;9.516;2022-12-24T01:10:37;96.72;;;59.60;;
47812;SDS011;34221;45.296;9.516;2022-12-24T01:10:52;96.13;;;59.80;;
47812;SDS011;34221;45.296;9.516;2022-12-24T01:11:07;97.18;;;61.15;;
47812;SDS011;34221;45.296;9.516;2022-12-24T01:11:24;97.13;;;61.70;;
47812;SDS011;34221;45.296;9.516;2022-12-24T01:11:39;95.38;;;61.88;;
47812;SDS011;34221;45.296;9.516;2022-12-24T01:11:54;96.68;;;61.33;;
47812;SDS011;34221;45.296;9.516;2022-12-24T01:12:09;95.70;;;60.20;;
47812;SDS011;34221;45.296;9.516;2022-12-24T01:12:24;97.35;;;59.22;;
47812;SDS011;34221;45.296;9.516;2022-12-24T01:12:39;99.90;;;61.08;;
47812;SDS011;34221;45.296;9.516;2022-12-24T01:12:54;95.20;;;61.97;;
47812;SDS011;34221;45.296;9.516;2022-12-24T01:13:09;95.03;;;60.67;;
47812;SDS011;34221;45.296;9.516;2022-12-24T01:13:24;100.15;;;62.08;;
47812;SDS011;34221;45.296;9.516;2022-12-24T01:13:39;103.82;;;62.00;;
47812;SDS011;34221;45.296;9.516;2022-12-24T01:13:54;101.93;;;60.05;;
47812;SDS011;34221;45.296;9.516;2022-12-24T01:14:09;98.30;;;61.53;;
47812;SDS011;34221;45.296;9.516;2022-12-24T01:14:24;100.70;;;63.70;;
47812;SDS011;34221;45.296;9.516;2022-12-24T01:14:39;100.35;;;63.00;;
47812;SDS011;34221;45.296;9.516;2022-12-24T01:14:54;101.07;;;63.25;;
47812;SDS011;34221;45.296;9.516;2022-12-24T01:15:09;100.40;;;62.95;;
47812;SDS011;34221;45.296;9.516;2022-12-24T01:15:26;95.63;;;62.55;;
47812;SDS011;34221;45.296;9.516;2022-12-24T01:15:41;98.00;;;64.13;;
47812;SDS011;34221;45.296;9.516;2022-12-24T01:15:56;95.68;;;63.10;;
47812;SDS011;34221;45.296;9.516;2022-12-24T01:16:18;98.35;;;61.45;;
47812;SDS011;34221;45.296;9.516;2022-12-24T01:16:33;104.72;;;63.42;;
47812;SDS011;34221;45.296;9.516;2022-12-24T01:16:48;103.32;;;63.30;;
47812;SDS011;34221;45.296;9.516;2022-12-24T01:17:03;104.03;;;63.08;;
47812;SDS011;34221;45.296;9.516;2022-12-24T01:17:18;98.97;;;61.97;;
47812;SDS011;34221;45.296;9.516;2022-12-24T01:17:33;91.60;;;60.10;;
47812;SDS011;34221;45.296;9.516;2022-12-24T01:17:49;89.85;;;59.45;;
47812;SDS011;34221;45.296;9.516;2022-12-24T01:18:04;94.95;;;59.85;;
47812;SDS011;34221;45.296;9.516;2022-12-24T01:18:20;98.10;;;61.13;;
47812;SDS011;34221;45.296;9.516;2022-12-24T01:18:34;97.70;;;62.28;;
47812;SDS011;34221;45.296;9.516;2022-12-24T01:18:49;98.75;;;63.38;;
47812;SDS011;34221;45.296;9.516;2022-12-24T01:19:04;100.50;;;62.83;;
47812;SDS011;34221;45.296;9.516;2022-12-24T01:19:19;103.90;;;63.75;;
47812;SDS011;34221;45.296;9.516;2022-12-24T01:19:34;98.30;;;64.55;;
47812;SDS011;34221;45.296;9.516;2022-12-24T01:19:49;96.05;;;62.70;;
47812;SDS011;34221;45.296;9.516;2022-12-24T01:20:05;101.32;;;62.63;;
47812;SDS011;34221;45.296;9.516;2022-12-24T01:20:22;106.57;;;64.13;;
47812;SDS011;34221;45.296;9.516;2022-12-24T01:20:40;105.25;;;63.78;;
47812;SDS011;34221;45.296;9.516;2022-12-24T01:20:59;99.30;;;62.75;;
47812;SDS011;34221;45.296;9.516;2022-12-24T01:21:16;97.07;;;63.20;;
47812;SDS011;34221;45.296;9.516;2022-12-24T01:21:31;98.43;;;62.83;;
47812;SDS011;34221;45.296;9.516;2022-12-24T01:21:46;100.30;;;63.65;;
47812;SDS011;34221;45.296;9.516;2022-12-24T01:22:01;95.20;;;62.85;;
47812;SDS011;34221;45.296;9.516;2022-12-24T01:22:16;94.45;;;61.70;;
47812;SDS011;34221;45.296;9.516;2022-12-24T01:22:31;103.85;;;63.15;;
47812;SDS011;34221;45.296;9.516;2022-12-24T01:22:46;105.90;;;62.35;;
47812;SDS011;34221;45.296;9.516;2022-12-24T01:23:02;98.68;;;61.30;;
47812;SDS011;34221;45.296;9.516;2022-12-24T01:23:16;100.93;;;62.08;;
47812;SDS011;34221;45.296;9.516;2022-12-24T01:23:31;99.28;;;62.13;;
47812;SDS011;34221;45.296;9.516;2022-12-24T01:23:47;96.00;;;60.75;;
47812;SDS011;34221;45.296;9.516;2022-12-24T01:24:02;97.65;;;61.33;;
47812;SDS011;34221;45.296;9.516;2022-12-24T01:24:17;95.03;;;60.55;;
47812;SDS011;34221;45.296;9.516;2022-12-24T01:24:32;92.97;;;58.45;;
47812;SDS011;34221;45.296;9.516;2022-12-24T01:24:48;94.82;;;60.85;;
47812;SDS011;34221;45.296;9.516;2022-12-24T01:25:03;94.30;;;62.13;;
47812;SDS011;34221;45.296;9.516;2022-12-24T01:25:18;94.53;;;62.38;;
47812;SDS011;34221;45.296;9.516;2022-12-24T01:25:33;97.67;;;63.23;;
47812;SDS011;34221;45.296;9.516;2022-12-24T01:25:48;100.60;;;62.97;;
47812;SDS011;34221;45.296;9.516;2022-12-24T01:26:03;98.45;;;62.35;;
47812;SDS011;34221;45.296;9.516;2022-12-24T01:26:18;95.90;;;62.30;;
47812;SDS011;34221;45.296;9.516;2022-12-24T01:26:33;99.70;;;63.50;;
47812;SDS011;34221;45.296;9.516;2022-12-24T01:26:48;98.82;;;62.97;;
47812;SDS011;34221;45.296;9.516;2022-12-24T01:27:03;98.57;;;62.90;;
47812;SDS011;34221;45.296;9.516;2022-12-24T01:27:18;100.28;;;62.85;;
47812;SDS011;34221;45.296;9.516;2022-12-24T01:27:33;99.20;;;63.30;;
47812;SDS011;34221;45.296;9.516;2022-12-24T01:27:48;98.38;;;63.42;;
47812;SDS011;34221;45.296;9.516;2022-12-24T01:28:03;99.85;;;63.05;;
47812;SDS011;34221;45.296;9.516;2022-12-24T01:28:19;102.10;;;63.17;;
47812;SDS011;34221;45.296;9.516;2022-12-24T01:28:35;107.53;;;63.10;;
47812;SDS011;34221;45.296;9.516;2022-12-24T01:28:50;106.17;;;63.27;;
47812;SDS011;34221;45.296;9.516;2022-12-24T01:29:04;101.93;;;62.90;;
47812;SDS011;34221;45.296;9.516;2022-12-24T01:29:19;95.35;;;60.47;;
47812;SDS011;34221;45.296;9.516;2022-12-24T01:29:34;94.50;;;59.35;;
47812;SDS011;34221;45.296;9.516;2022-12-24T01:29:49;99.38;;;61.42;;
47812;SDS011;34221;45.296;9.516;2022-12-24T01:30:05;99.84;;;63.86;;
47812;SDS011;34221;45.296;9.516;2022-12-24T01:30:22;99.57;;;63.63;;
47812;SDS011;34221;45.296;9.516;2022-12-24T01:30:39;95.38;;;61.83;;
47812;SDS011;34221;45.296;9.516;2022-12-24T01:30:54;96.82;;;61.70;;
47812;SDS011;34221;45.296;9.516;2022-12-24T01:31:16;99.07;;;63.67;;